sensor_id;sensor_type;location;lat;lon;timestamp;P1;durP1;ratioP1;P2;durP2;ratioP2
30515;SDS011;17297;54.022;10.760;2024-01-11T00:02:03;4.55;;;3.63;;
30515;SDS011;17297;54.022;10.760;2024-01-11T00:04:29;3.50;;;2.88;;
30515;SDS011;17297;54.022;10.760;2024-01-11T00:06:54;3.83;;;3.42;;
30515;SDS011;17297;54.022;10.760;2024-01-11T00:09:20;4.43;;;3.97;;
30515;SDS011;17297;54.022;10.760;2024-01-11T00:11:45;4.25;;;3.45;;
30515;SDS011;17297;54.022;10.760;2024-01-11T00:14:10;4.65;;;3.38;;
30515;SDS011;17297;54.022;10.760;2024-01-11T00:16:36;7.60;;;3.75;;
30515;SDS011;17297;54.022;10.760;2024-01-11T00:19:01;5.82;;;3.40;;
30515;SDS011;17297;54.022;10.760;2024-01-11T00:21:27;4.80;;;3.80;;
30515;SDS011;17297;54.022;10.760;2024-01-11T00:23:53;4.10;;;3.70;;
30515;SDS011;17297;54.022;10.760;2024-01-11T00:26:18;5.55;;;4.35;;
30515;SDS011;17297;54.022;10.760;2024-01-11T00:28:43;6.55;;;4.10;;
30515;SDS011;17297;54.022;10.760;2024-01-11T00:31:09;7.85;;;4.85;;
30515;SDS011;17297;54.022;10.760;2024-01-11T00:33:35;4.50;;;3.58;;
30515;SDS011;17297;54.022;10.760;2024-01-11T00:36:00;6.35;;;4.45;;
30515;SDS011;17297;54.022;10.760;2024-01-11T00:38:26;7.65;;;4.60;;
30515;SDS011;17297;54.022;10.760;2024-01-11T00:40:51;5.45;;;4.72;;
30515;SDS011;17297;54.022;10.760;2024-01-11T00:43:16;6.35;;;4.90;;
30515;SDS011;17297;54.022;10.760;2024-01-11T00:45:42;7.22;;;5.13;;
30515;SDS011;17297;54.022;10.760;2024-01-11T00:48:08;10.52;;;7.10;;
30515;SDS011;17297;54.022;10.760;2024-01-11T00:50:34;7.32;;;5.53;;
30515;SDS011;17297;54.022;10.760;2024-01-11T00:52:59;7.55;;;5.72;;
30515;SDS011;17297;54.022;10.760;2024-01-11T00:55:26;9.10;;;6.18;;
30515;SDS011;17297;54.022;10.760;2024-01-11T00:57:51;10.30;;;6.43;;
30515;SDS011;17297;54.022;10.760;2024-01-11T01:00:16;8.85;;;5.65;;
30515;SDS011;17297;54.022;10.760;2024-01-11T01:02:42;9.40;;;6.07;;
30515;SDS011;17297;54.022;10.760;2024-01-11T01:05:08;9.30;;;7.88;;
30515;SDS011;17297;54.022;10.760;2024-01-11T01:07:33;9.02;;;5.57;;
30515;SDS011;17297;54.022;10.760;2024-01-11T01:09:59;8.98;;;6.30;;
30515;SDS011;17297;54.022;10.760;2024-01-11T01:12:24;7.10;;;6.00;;
30515;SDS011;17297;54.022;10.760;2024-01-11T01:14:52;8.27;;;5.82;;
30515;SDS011;17297;54.022;10.760;2024-01-11T01:17:17;7.05;;;5.45;;
30515;SDS011;17297;54.022;10.760;2024-01-11T01:19:43;7.57;;;5.00;;
30515;SDS011;17297;54.022;10.760;2024-01-11T01:22:09;6.82;;;5.07;;
30515;SDS011;17297;54.022;10.760;2024-01-11T01:24:34;7.78;;;6.07;;
30515;SDS011;17297;54.022;10.760;2024-01-11T01:26:59;6.90;;;5.13;;
30515;SDS011;17297;54.022;10.760;2024-01-11T01:29:26;7.75;;;5.35;;
30515;SDS011;17297;54.022;10.760;2024-01-11T01:31:52;6.63;;;4.90;;
30515;SDS011;17297;54.022;10.760;2024-01-11T01:34:17;8.23;;;5.32;;
30515;SDS011;17297;54.022;10.760;2024-01-11T01:36:42;8.55;;;6.28;;
30515;SDS011;17297;54.022;10.760;2024-01-11T01:39:08;6.15;;;4.13;;
30515;SDS011;17297;54.022;10.760;2024-01-11T01:41:33;6.57;;;5.05;;
30515;SDS011;17297;54.022;10.760;2024-01-11T01:43:58;7.72;;;5.25;;
30515;SDS011;17297;54.022;10.760;2024-01-11T01:46:24;7.43;;;5.70;;
30515;SDS011;17297;54.022;10.760;2024-01-11T01:48:53;7.72;;;5.05;;
30515;SDS011;17297;54.022;10.760;2024-01-11T01:51:20;6.88;;;5.03;;
30515;SDS011;17297;54.022;10.760;2024-01-11T01:53:47;7.60;;;5.85;;
30515;SDS011;17297;54.022;10.760;2024-01-11T01:56:15;7.85;;;4.68;;
30515;SDS011;17297;54.022;10.760;2024-01-11T01:58:42;6.38;;;4.57;;
30515;SDS011;17297;54.022;10.760;2024-01-11T02:01:08;7.53;;;4.80;;
30515;SDS011;17297;54.022;10.760;2024-01-11T02:03:33;9.05;;;6.05;;
30515;SDS011;17297;54.022;10.760;2024-01-11T02:06:00;8.13;;;5.68;;
30515;SDS011;17297;54.022;10.760;2024-01-11T02:08:26;7.25;;;5.07;;
30515;SDS011;17297;54.022;10.760;2024-01-11T02:10:52;7.18;;;4.93;;
30515;SDS011;17297;54.022;10.760;2024-01-11T02:13:17;7.50;;;6.07;;
30515;SDS011;17297;54.022;10.760;2024-01-11T02:15:45;6.90;;;4.72;;
30515;SDS011;17297;54.022;10.760;2024-01-11T02:18:10;7.68;;;5.03;;
30515;SDS011;17297;54.022;10.760;2024-01-11T02:20:36;8.43;;;6.25;;
30515;SDS011;17297;54.022;10.760;2024-01-11T02:23:03;7.68;;;4.88;;
30515;SDS011;17297;54.022;10.760;2024-01-11T02:25:31;9.00;;;6.18;;
30515;SDS011;17297;54.022;10.760;2024-01-11T02:27:56;5.15;;;4.07;;
30515;SDS011;17297;54.022;10.760;2024-01-11T02:30:22;8.35;;;5.88;;
30515;SDS011;17297;54.022;10.760;2024-01-11T02:32:48;8.10;;;5.13;;
30515;SDS011;17297;54.022;10.760;2024-01-11T02:35:15;7.95;;;5.20;;
30515;SDS011;17297;54.022;10.760;2024-01-11T02:37:41;7.15;;;4.57;;
30515;SDS011;17297;54.022;10.760;2024-01-11T02:40:07;6.93;;;4.78;;
30515;SDS011;17297;54.022;10.760;2024-01-11T02:42:33;7.25;;;4.95;;
30515;SDS011;17297;54.022;10.760;2024-01-11T02:44:59;7.65;;;5.47;;
30515;SDS011;17297;54.022;10.760;2024-01-11T02:47:25;7.53;;;5.20;;
30515;SDS011;17297;54.022;10.760;2024-01-11T02:49:51;7.75;;;5.03;;
30515;SDS011;17297;54.022;10.760;2024-01-11T02:52:16;8.00;;;5.20;;
30515;SDS011;17297;54.022;10.760;2024-01-11T02:54:41;7.78;;;4.88;;
30515;SDS011;17297;54.022;10.760;2024-01-11T02:57:07;8.90;;;5.50;;
30515;SDS011;17297;54.022;10.760;2024-01-11T02:59:32;7.35;;;5.05;;
30515;SDS011;17297;54.022;10.760;2024-01-11T03:01:57;9.95;;;6.00;;
30515;SDS011;17297;54.022;10.760;2024-01-11T03:04:23;8.80;;;5.22;;
30515;SDS011;17297;54.022;10.760;2024-01-11T03:06:48;9.32;;;6.07;;
30515;SDS011;17297;54.022;10.760;2024-01-11T03:09:13;7.20;;;5.45;;
30515;SDS011;17297;54.022;10.760;2024-01-11T03:11:39;9.35;;;5.88;;
30515;SDS011;17297;54.022;10.760;2024-01-11T03:14:04;10.18;;;5.93;;
30515;SDS011;17297;54.022;10.760;2024-01-11T03:16:29;10.32;;;6.13;;
30515;SDS011;17297;54.022;10.760;2024-01-11T03:18:55;10.57;;;6.20;;
30515;SDS011;17297;54.022;10.760;2024-01-11T03:21:20;9.60;;;5.80;;
30515;SDS011;17297;54.022;10.760;2024-01-11T03:23:45;10.77;;;6.22;;
30515;SDS011;17297;54.022;10.760;2024-01-11T03:26:17;11.77;;;6.45;;
30515;SDS011;17297;54.022;10.760;2024-01-11T03:28:42;12.23;;;6.72;;
30515;SDS011;17297;54.022;10.760;2024-01-11T03:31:09;12.18;;;6.93;;
30515;SDS011;17297;54.022;10.760;2024-01-11T03:33:34;11.80;;;6.53;;
30515;SDS011;17297;54.022;10.760;2024-01-11T03:36:05;12.30;;;6.43;;
30515;SDS011;17297;54.022;10.760;2024-01-11T03:38:32;12.48;;;6.97;;
30515;SDS011;17297;54.022;10.760;2024-01-11T03:40:57;11.77;;;6.85;;
30515;SDS011;17297;54.022;10.760;2024-01-11T03:43:22;16.48;;;8.60;;
30515;SDS011;17297;54.022;10.760;2024-01-11T03:45:47;13.43;;;7.40;;
30515;SDS011;17297;54.022;10.760;2024-01-11T03:48:13;13.88;;;7.78;;
30515;SDS011;17297;54.022;10.760;2024-01-11T03:50:38;15.65;;;8.02;;
30515;SDS011;17297;54.022;10.760;2024-01-11T03:53:04;14.70;;;7.63;;
30515;SDS011;17297;54.022;10.760;2024-01-11T03:55:29;14.05;;;7.40;;
30515;SDS011;17297;54.022;10.760;2024-01-11T03:57:54;11.48;;;6.72;;
30515;SDS011;17297;54.022;10.760;2024-01-11T04:00:21;14.05;;;7.60;;
30515;SDS011;17297;54.022;10.760;2024-01-11T04:02:46;12.48;;;6.70;;
30515;SDS011;17297;54.022;10.760;2024-01-11T04:05:12;10.93;;;6.63;;
30515;SDS011;17297;54.022;10.760;2024-01-11T04:07:37;11.55;;;6.47;;
30515;SDS011;17297;54.022;10.760;2024-01-11T04:10:03;11.65;;;7.35;;
30515;SDS011;17297;54.022;10.760;2024-01-11T04:12:29;10.93;;;7.13;;
30515;SDS011;17297;54.022;10.760;2024-01-11T04:14:54;13.05;;;6.45;;
30515;SDS011;17297;54.022;10.760;2024-01-11T04:17:19;10.65;;;6.00;;
30515;SDS011;17297;54.022;10.760;2024-01-11T04:19:45;9.55;;;6.07;;
30515;SDS011;17297;54.022;10.760;2024-01-11T04:22:10;9.48;;;5.22;;
30515;SDS011;17297;54.022;10.760;2024-01-11T04:24:35;8.40;;;4.93;;
30515;SDS011;17297;54.022;10.760;2024-01-11T04:27:01;6.85;;;4.53;;
30515;SDS011;17297;54.022;10.760;2024-01-11T04:29:26;8.95;;;4.53;;
30515;SDS011;17297;54.022;10.760;2024-01-11T04:31:51;7.68;;;4.80;;
30515;SDS011;17297;54.022;10.760;2024-01-11T04:34:17;7.97;;;5.32;;
30515;SDS011;17297;54.022;10.760;2024-01-11T04:36:42;6.20;;;4.13;;
30515;SDS011;17297;54.022;10.760;2024-01-11T04:39:07;6.82;;;4.40;;
30515;SDS011;17297;54.022;10.760;2024-01-11T04:41:35;5.55;;;3.83;;
30515;SDS011;17297;54.022;10.760;2024-01-11T04:44:01;7.05;;;4.60;;
30515;SDS011;17297;54.022;10.760;2024-01-11T04:46:27;9.98;;;5.03;;
30515;SDS011;17297;54.022;10.760;2024-01-11T04:48:52;7.20;;;4.05;;
30515;SDS011;17297;54.022;10.760;2024-01-11T04:51:19;7.82;;;4.28;;
30515;SDS011;17297;54.022;10.760;2024-01-11T04:53:45;5.78;;;3.75;;
30515;SDS011;17297;54.022;10.760;2024-01-11T04:56:11;6.68;;;4.03;;
30515;SDS011;17297;54.022;10.760;2024-01-11T04:58:39;7.10;;;4.53;;
30515;SDS011;17297;54.022;10.760;2024-01-11T05:01:06;5.53;;;3.95;;
30515;SDS011;17297;54.022;10.760;2024-01-11T05:03:31;7.28;;;4.22;;
30515;SDS011;17297;54.022;10.760;2024-01-11T05:06:00;5.53;;;3.88;;
30515;SDS011;17297;54.022;10.760;2024-01-11T05:08:25;5.47;;;3.17;;
30515;SDS011;17297;54.022;10.760;2024-01-11T05:10:51;6.05;;;3.65;;
30515;SDS011;17297;54.022;10.760;2024-01-11T05:13:17;5.72;;;3.60;;
30515;SDS011;17297;54.022;10.760;2024-01-11T05:15:42;5.35;;;3.35;;
30515;SDS011;17297;54.022;10.760;2024-01-11T05:18:08;5.55;;;3.42;;
30515;SDS011;17297;54.022;10.760;2024-01-11T05:20:33;6.28;;;4.10;;
30515;SDS011;17297;54.022;10.760;2024-01-11T05:22:58;6.70;;;4.05;;
30515;SDS011;17297;54.022;10.760;2024-01-11T05:25:25;6.68;;;4.03;;
30515;SDS011;17297;54.022;10.760;2024-01-11T05:27:51;5.22;;;3.47;;
30515;SDS011;17297;54.022;10.760;2024-01-11T05:30:16;6.40;;;3.58;;
30515;SDS011;17297;54.022;10.760;2024-01-11T05:32:42;6.18;;;3.67;;
30515;SDS011;17297;54.022;10.760;2024-01-11T05:35:07;6.47;;;4.07;;
30515;SDS011;17297;54.022;10.760;2024-01-11T05:37:33;5.18;;;3.15;;
30515;SDS011;17297;54.022;10.760;2024-01-11T05:39:58;6.07;;;4.05;;
30515;SDS011;17297;54.022;10.760;2024-01-11T05:42:23;4.65;;;3.03;;
30515;SDS011;17297;54.022;10.760;2024-01-11T05:44:49;5.43;;;3.40;;
30515;SDS011;17297;54.022;10.760;2024-01-11T05:47:15;5.97;;;3.83;;
30515;SDS011;17297;54.022;10.760;2024-01-11T05:49:40;5.32;;;4.03;;
30515;SDS011;17297;54.022;10.760;2024-01-11T05:52:08;4.85;;;3.38;;
30515;SDS011;17297;54.022;10.760;2024-01-11T05:54:34;5.05;;;3.45;;
30515;SDS011;17297;54.022;10.760;2024-01-11T05:57:00;4.93;;;3.28;;
30515;SDS011;17297;54.022;10.760;2024-01-11T05:59:25;6.07;;;3.67;;
30515;SDS011;17297;54.022;10.760;2024-01-11T06:01:52;7.05;;;3.40;;
30515;SDS011;17297;54.022;10.760;2024-01-11T06:04:17;4.25;;;2.75;;
30515;SDS011;17297;54.022;10.760;2024-01-11T06:06:42;6.78;;;2.95;;
30515;SDS011;17297;54.022;10.760;2024-01-11T06:09:08;4.75;;;3.03;;
30515;SDS011;17297;54.022;10.760;2024-01-11T06:11:35;3.53;;;2.65;;
30515;SDS011;17297;54.022;10.760;2024-01-11T06:14:00;4.65;;;2.72;;
30515;SDS011;17297;54.022;10.760;2024-01-11T06:16:26;4.47;;;2.85;;
30515;SDS011;17297;54.022;10.760;2024-01-11T06:18:51;4.07;;;2.65;;
30515;SDS011;17297;54.022;10.760;2024-01-11T06:21:17;5.60;;;3.60;;
30515;SDS011;17297;54.022;10.760;2024-01-11T06:23:45;5.95;;;3.33;;
30515;SDS011;17297;54.022;10.760;2024-01-11T06:26:10;4.68;;;3.50;;
30515;SDS011;17297;54.022;10.760;2024-01-11T06:28:36;5.18;;;2.90;;
30515;SDS011;17297;54.022;10.760;2024-01-11T06:31:01;4.40;;;3.13;;
30515;SDS011;17297;54.022;10.760;2024-01-11T06:33:26;5.45;;;3.28;;
30515;SDS011;17297;54.022;10.760;2024-01-11T06:35:53;4.30;;;2.70;;
30515;SDS011;17297;54.022;10.760;2024-01-11T06:38:18;6.22;;;3.60;;
30515;SDS011;17297;54.022;10.760;2024-01-11T06:40:44;6.70;;;4.45;;
30515;SDS011;17297;54.022;10.760;2024-01-11T06:43:09;5.00;;;3.47;;
30515;SDS011;17297;54.022;10.760;2024-01-11T06:45:34;5.75;;;3.42;;
30515;SDS011;17297;54.022;10.760;2024-01-11T06:48:01;5.93;;;3.83;;
30515;SDS011;17297;54.022;10.760;2024-01-11T06:50:26;6.53;;;3.75;;
30515;SDS011;17297;54.022;10.760;2024-01-11T06:52:51;5.70;;;3.33;;
30515;SDS011;17297;54.022;10.760;2024-01-11T06:55:16;6.28;;;3.60;;
30515;SDS011;17297;54.022;10.760;2024-01-11T06:57:42;6.18;;;3.67;;
30515;SDS011;17297;54.022;10.760;2024-01-11T07:00:07;5.00;;;3.25;;
30515;SDS011;17297;54.022;10.760;2024-01-11T07:02:33;4.10;;;3.40;;
30515;SDS011;17297;54.022;10.760;2024-01-11T07:04:58;4.32;;;2.63;;
30515;SDS011;17297;54.022;10.760;2024-01-11T07:07:23;4.72;;;3.22;;
30515;SDS011;17297;54.022;10.760;2024-01-11T07:09:49;5.47;;;3.55;;
30515;SDS011;17297;54.022;10.760;2024-01-11T07:12:14;5.57;;;3.50;;
30515;SDS011;17297;54.022;10.760;2024-01-11T07:14:39;4.22;;;2.67;;
30515;SDS011;17297;54.022;10.760;2024-01-11T07:17:05;5.15;;;2.83;;
30515;SDS011;17297;54.022;10.760;2024-01-11T07:19:30;5.35;;;2.85;;
30515;SDS011;17297;54.022;10.760;2024-01-11T07:21:56;4.95;;;2.65;;
30515;SDS011;17297;54.022;10.760;2024-01-11T07:24:21;3.17;;;2.28;;
30515;SDS011;17297;54.022;10.760;2024-01-11T07:26:46;4.50;;;2.65;;
30515;SDS011;17297;54.022;10.760;2024-01-11T07:29:12;4.20;;;2.40;;
30515;SDS011;17297;54.022;10.760;2024-01-11T07:31:37;5.32;;;3.10;;
30515;SDS011;17297;54.022;10.760;2024-01-11T07:34:03;3.53;;;2.53;;
30515;SDS011;17297;54.022;10.760;2024-01-11T07:36:28;3.50;;;2.53;;
30515;SDS011;17297;54.022;10.760;2024-01-11T07:38:53;4.78;;;2.80;;
30515;SDS011;17297;54.022;10.760;2024-01-11T07:41:20;3.17;;;2.38;;
30515;SDS011;17297;54.022;10.760;2024-01-11T07:43:46;4.55;;;2.50;;
30515;SDS011;17297;54.022;10.760;2024-01-11T07:46:12;3.63;;;2.67;;
30515;SDS011;17297;54.022;10.760;2024-01-11T07:48:37;5.10;;;3.28;;
30515;SDS011;17297;54.022;10.760;2024-01-11T07:51:03;6.13;;;4.55;;
30515;SDS011;17297;54.022;10.760;2024-01-11T07:53:29;6.78;;;5.25;;
30515;SDS011;17297;54.022;10.760;2024-01-11T07:55:57;5.07;;;3.72;;
30515;SDS011;17297;54.022;10.760;2024-01-11T07:58:23;5.32;;;4.18;;
30515;SDS011;17297;54.022;10.760;2024-01-11T08:00:48;5.18;;;3.40;;
30515;SDS011;17297;54.022;10.760;2024-01-11T08:03:14;4.82;;;3.03;;
30515;SDS011;17297;54.022;10.760;2024-01-11T08:05:39;6.30;;;3.65;;
30515;SDS011;17297;54.022;10.760;2024-01-11T08:08:05;7.82;;;5.10;;
30515;SDS011;17297;54.022;10.760;2024-01-11T08:10:30;7.72;;;5.85;;
30515;SDS011;17297;54.022;10.760;2024-01-11T08:12:56;7.78;;;5.45;;
30515;SDS011;17297;54.022;10.760;2024-01-11T08:15:21;7.03;;;4.60;;
30515;SDS011;17297;54.022;10.760;2024-01-11T08:17:46;6.70;;;4.57;;
30515;SDS011;17297;54.022;10.760;2024-01-11T08:20:12;6.15;;;4.25;;
30515;SDS011;17297;54.022;10.760;2024-01-11T08:22:41;5.93;;;3.60;;
30515;SDS011;17297;54.022;10.760;2024-01-11T08:25:08;4.50;;;3.53;;
30515;SDS011;17297;54.022;10.760;2024-01-11T08:27:33;7.18;;;4.05;;
30515;SDS011;17297;54.022;10.760;2024-01-11T08:29:59;4.38;;;3.40;;
30515;SDS011;17297;54.022;10.760;2024-01-11T08:32:27;4.68;;;3.10;;
30515;SDS011;17297;54.022;10.760;2024-01-11T08:34:54;6.78;;;4.95;;
30515;SDS011;17297;54.022;10.760;2024-01-11T08:37:19;4.75;;;3.60;;
30515;SDS011;17297;54.022;10.760;2024-01-11T08:39:44;4.00;;;3.33;;
30515;SDS011;17297;54.022;10.760;2024-01-11T08:42:11;2.95;;;1.88;;
30515;SDS011;17297;54.022;10.760;2024-01-11T08:44:36;2.55;;;1.88;;
30515;SDS011;17297;54.022;10.760;2024-01-11T08:47:06;3.10;;;2.67;;
30515;SDS011;17297;54.022;10.760;2024-01-11T08:49:31;3.50;;;2.45;;
30515;SDS011;17297;54.022;10.760;2024-01-11T08:51:57;2.42;;;1.60;;
30515;SDS011;17297;54.022;10.760;2024-01-11T08:54:23;4.22;;;2.92;;
30515;SDS011;17297;54.022;10.760;2024-01-11T08:56:48;3.17;;;2.15;;
30515;SDS011;17297;54.022;10.760;2024-01-11T08:59:13;2.25;;;1.75;;
30515;SDS011;17297;54.022;10.760;2024-01-11T09:01:39;3.08;;;1.75;;
30515;SDS011;17297;54.022;10.760;2024-01-11T09:04:04;2.78;;;1.63;;
30515;SDS011;17297;54.022;10.760;2024-01-11T09:06:30;3.10;;;1.50;;
30515;SDS011;17297;54.022;10.760;2024-01-11T09:08:55;2.95;;;1.80;;
30515;SDS011;17297;54.022;10.760;2024-01-11T09:11:21;3.65;;;1.83;;
30515;SDS011;17297;54.022;10.760;2024-01-11T09:13:46;2.60;;;1.73;;
30515;SDS011;17297;54.022;10.760;2024-01-11T09:16:15;3.58;;;1.95;;
30515;SDS011;17297;54.022;10.760;2024-01-11T09:18:41;2.20;;;1.77;;
30515;SDS011;17297;54.022;10.760;2024-01-11T09:21:08;2.53;;;2.28;;
30515;SDS011;17297;54.022;10.760;2024-01-11T09:23:34;2.70;;;1.70;;
30515;SDS011;17297;54.022;10.760;2024-01-11T09:25:59;3.95;;;1.95;;
30515;SDS011;17297;54.022;10.760;2024-01-11T09:28:25;3.25;;;1.58;;
30515;SDS011;17297;54.022;10.760;2024-01-11T09:30:50;3.65;;;2.10;;
30515;SDS011;17297;54.022;10.760;2024-01-11T09:33:15;3.00;;;1.95;;
30515;SDS011;17297;54.022;10.760;2024-01-11T09:35:41;3.53;;;2.10;;
30515;SDS011;17297;54.022;10.760;2024-01-11T09:38:06;2.55;;;1.80;;
30515;SDS011;17297;54.022;10.760;2024-01-11T09:40:32;2.95;;;1.60;;
30515;SDS011;17297;54.022;10.760;2024-01-11T09:42:57;3.15;;;2.20;;
30515;SDS011;17297;54.022;10.760;2024-01-11T09:45:24;2.65;;;1.60;;
30515;SDS011;17297;54.022;10.760;2024-01-11T09:47:50;3.85;;;2.10;;
30515;SDS011;17297;54.022;10.760;2024-01-11T09:50:17;3.45;;;1.88;;
30515;SDS011;17297;54.022;10.760;2024-01-11T09:52:47;4.57;;;2.17;;
30515;SDS011;17297;54.022;10.760;2024-01-11T09:55:13;2.67;;;2.00;;
30515;SDS011;17297;54.022;10.760;2024-01-11T09:57:41;3.70;;;2.20;;
30515;SDS011;17297;54.022;10.760;2024-01-11T10:00:09;4.13;;;1.73;;
30515;SDS011;17297;54.022;10.760;2024-01-11T10:02:39;3.92;;;1.83;;
30515;SDS011;17297;54.022;10.760;2024-01-11T10:05:05;2.75;;;1.70;;
30515;SDS011;17297;54.022;10.760;2024-01-11T10:07:31;3.25;;;2.05;;
30515;SDS011;17297;54.022;10.760;2024-01-11T10:09:58;2.20;;;1.67;;
30515;SDS011;17297;54.022;10.760;2024-01-11T10:12:26;3.30;;;1.88;;
30515;SDS011;17297;54.022;10.760;2024-01-11T10:14:52;4.00;;;2.22;;
30515;SDS011;17297;54.022;10.760;2024-01-11T10:17:18;3.05;;;1.98;;
30515;SDS011;17297;54.022;10.760;2024-01-11T10:19:43;3.28;;;2.35;;
30515;SDS011;17297;54.022;10.760;2024-01-11T10:22:09;3.72;;;1.90;;
30515;SDS011;17297;54.022;10.760;2024-01-11T10:24:38;4.63;;;2.72;;
30515;SDS011;17297;54.022;10.760;2024-01-11T10:27:05;2.70;;;2.10;;
30515;SDS011;17297;54.022;10.760;2024-01-11T10:29:34;3.47;;;1.88;;
30515;SDS011;17297;54.022;10.760;2024-01-11T10:32:01;2.85;;;2.15;;
30515;SDS011;17297;54.022;10.760;2024-01-11T10:34:28;3.70;;;2.35;;
30515;SDS011;17297;54.022;10.760;2024-01-11T10:36:54;4.97;;;2.80;;
30515;SDS011;17297;54.022;10.760;2024-01-11T10:39:21;3.78;;;2.20;;
30515;SDS011;17297;54.022;10.760;2024-01-11T10:42:04;3.15;;;2.33;;
30515;SDS011;17297;54.022;10.760;2024-01-11T10:44:32;3.88;;;2.05;;
30515;SDS011;17297;54.022;10.760;2024-01-11T10:46:59;5.15;;;2.70;;
30515;SDS011;17297;54.022;10.760;2024-01-11T10:49:27;3.00;;;2.28;;
30515;SDS011;17297;54.022;10.760;2024-01-11T10:52:04;5.30;;;2.17;;
30515;SDS011;17297;54.022;10.760;2024-01-11T10:54:33;5.68;;;3.00;;
30515;SDS011;17297;54.022;10.760;2024-01-11T10:56:59;2.63;;;1.92;;
30515;SDS011;17297;54.022;10.760;2024-01-11T10:59:26;2.97;;;2.33;;
30515;SDS011;17297;54.022;10.760;2024-01-11T11:01:55;3.78;;;2.28;;
30515;SDS011;17297;54.022;10.760;2024-01-11T11:04:29;3.05;;;2.00;;
30515;SDS011;17297;54.022;10.760;2024-01-11T11:06:58;4.40;;;2.40;;
30515;SDS011;17297;54.022;10.760;2024-01-11T11:09:26;3.10;;;2.33;;
30515;SDS011;17297;54.022;10.760;2024-01-11T11:11:56;3.40;;;2.10;;
30515;SDS011;17297;54.022;10.760;2024-01-11T11:14:23;5.15;;;2.63;;
30515;SDS011;17297;54.022;10.760;2024-01-11T11:16:49;4.80;;;3.15;;
30515;SDS011;17297;54.022;10.760;2024-01-11T11:19:17;4.18;;;2.70;;
30515;SDS011;17297;54.022;10.760;2024-01-11T11:21:43;5.13;;;2.47;;
30515;SDS011;17297;54.022;10.760;2024-01-11T11:24:10;4.00;;;2.80;;
30515;SDS011;17297;54.022;10.760;2024-01-11T11:26:36;3.10;;;2.22;;
30515;SDS011;17297;54.022;10.760;2024-01-11T11:29:03;4.68;;;2.97;;
30515;SDS011;17297;54.022;10.760;2024-01-11T11:31:37;5.65;;;3.60;;
30515;SDS011;17297;54.022;10.760;2024-01-11T11:34:07;3.58;;;2.55;;
30515;SDS011;17297;54.022;10.760;2024-01-11T11:36:36;5.03;;;3.45;;
30515;SDS011;17297;54.022;10.760;2024-01-11T11:39:01;3.63;;;2.63;;
30515;SDS011;17297;54.022;10.760;2024-01-11T11:41:27;5.15;;;2.92;;
30515;SDS011;17297;54.022;10.760;2024-01-11T11:44:00;4.72;;;3.10;;
30515;SDS011;17297;54.022;10.760;2024-01-11T11:46:26;5.60;;;2.80;;
30515;SDS011;17297;54.022;10.760;2024-01-11T11:48:52;4.47;;;3.00;;
30515;SDS011;17297;54.022;10.760;2024-01-11T11:51:19;7.00;;;3.15;;
30515;SDS011;17297;54.022;10.760;2024-01-11T11:53:46;4.57;;;3.30;;
30515;SDS011;17297;54.022;10.760;2024-01-11T11:56:13;4.60;;;3.00;;
30515;SDS011;17297;54.022;10.760;2024-01-11T11:58:42;6.53;;;3.58;;
30515;SDS011;17297;54.022;10.760;2024-01-11T12:01:17;5.63;;;3.53;;
30515;SDS011;17297;54.022;10.760;2024-01-11T12:03:43;4.93;;;2.90;;
30515;SDS011;17297;54.022;10.760;2024-01-11T12:06:14;4.80;;;3.10;;
30515;SDS011;17297;54.022;10.760;2024-01-11T12:08:42;5.15;;;3.33;;
30515;SDS011;17297;54.022;10.760;2024-01-11T12:11:08;5.18;;;3.35;;
30515;SDS011;17297;54.022;10.760;2024-01-11T12:13:34;4.70;;;3.78;;
30515;SDS011;17297;54.022;10.760;2024-01-11T12:16:00;4.75;;;3.00;;
30515;SDS011;17297;54.022;10.760;2024-01-11T12:18:25;5.60;;;3.88;;
30515;SDS011;17297;54.022;10.760;2024-01-11T12:20:52;4.22;;;2.85;;
30515;SDS011;17297;54.022;10.760;2024-01-11T12:23:20;4.43;;;3.58;;
30515;SDS011;17297;54.022;10.760;2024-01-11T12:25:45;5.95;;;3.55;;
30515;SDS011;17297;54.022;10.760;2024-01-11T12:28:12;4.68;;;3.13;;
30515;SDS011;17297;54.022;10.760;2024-01-11T12:30:37;6.38;;;4.25;;
30515;SDS011;17297;54.022;10.760;2024-01-11T12:33:03;5.88;;;3.63;;
30515;SDS011;17297;54.022;10.760;2024-01-11T12:35:30;5.82;;;3.72;;
30515;SDS011;17297;54.022;10.760;2024-01-11T12:37:58;7.10;;;3.63;;
30515;SDS011;17297;54.022;10.760;2024-01-11T12:40:25;4.88;;;3.00;;
30515;SDS011;17297;54.022;10.760;2024-01-11T12:42:52;3.97;;;3.13;;
30515;SDS011;17297;54.022;10.760;2024-01-11T12:45:18;4.93;;;3.33;;
30515;SDS011;17297;54.022;10.760;2024-01-11T12:47:44;6.63;;;4.00;;
30515;SDS011;17297;54.022;10.760;2024-01-11T12:50:10;6.47;;;3.50;;
30515;SDS011;17297;54.022;10.760;2024-01-11T12:52:37;6.47;;;4.40;;
30515;SDS011;17297;54.022;10.760;2024-01-11T12:55:03;7.03;;;3.35;;
30515;SDS011;17297;54.022;10.760;2024-01-11T12:57:29;6.53;;;5.00;;
30515;SDS011;17297;54.022;10.760;2024-01-11T12:59:55;4.53;;;2.92;;
30515;SDS011;17297;54.022;10.760;2024-01-11T13:02:35;4.88;;;3.33;;
30515;SDS011;17297;54.022;10.760;2024-01-11T13:05:00;4.32;;;3.40;;
30515;SDS011;17297;54.022;10.760;2024-01-11T13:07:27;5.05;;;3.60;;
30515;SDS011;17297;54.022;10.760;2024-01-11T13:09:53;3.83;;;3.25;;
30515;SDS011;17297;54.022;10.760;2024-01-11T13:12:18;3.78;;;2.80;;
30515;SDS011;17297;54.022;10.760;2024-01-11T13:14:45;5.97;;;3.58;;
30515;SDS011;17297;54.022;10.760;2024-01-11T13:17:11;4.22;;;3.13;;
30515;SDS011;17297;54.022;10.760;2024-01-11T13:19:36;3.35;;;2.60;;
30515;SDS011;17297;54.022;10.760;2024-01-11T13:22:02;4.32;;;2.45;;
30515;SDS011;17297;54.022;10.760;2024-01-11T13:24:27;4.60;;;3.13;;
30515;SDS011;17297;54.022;10.760;2024-01-11T13:26:53;5.18;;;2.83;;
30515;SDS011;17297;54.022;10.760;2024-01-11T13:29:20;2.95;;;2.53;;
30515;SDS011;17297;54.022;10.760;2024-01-11T13:31:45;5.75;;;3.10;;
30515;SDS011;17297;54.022;10.760;2024-01-11T13:34:11;4.65;;;2.97;;
30515;SDS011;17297;54.022;10.760;2024-01-11T13:36:36;3.60;;;2.55;;
30515;SDS011;17297;54.022;10.760;2024-01-11T13:39:01;4.63;;;3.03;;
30515;SDS011;17297;54.022;10.760;2024-01-11T13:41:27;5.47;;;3.00;;
30515;SDS011;17297;54.022;10.760;2024-01-11T13:43:53;2.83;;;2.28;;
30515;SDS011;17297;54.022;10.760;2024-01-11T13:46:19;2.78;;;2.35;;
30515;SDS011;17297;54.022;10.760;2024-01-11T13:48:45;4.75;;;2.65;;
30515;SDS011;17297;54.022;10.760;2024-01-11T13:51:10;3.70;;;2.67;;
30515;SDS011;17297;54.022;10.760;2024-01-11T13:53:38;2.78;;;2.33;;
30515;SDS011;17297;54.022;10.760;2024-01-11T13:56:03;3.00;;;2.13;;
30515;SDS011;17297;54.022;10.760;2024-01-11T13:58:29;5.47;;;2.40;;
30515;SDS011;17297;54.022;10.760;2024-01-11T14:00:55;3.97;;;2.47;;
30515;SDS011;17297;54.022;10.760;2024-01-11T14:03:20;2.85;;;2.20;;
30515;SDS011;17297;54.022;10.760;2024-01-11T14:05:45;2.88;;;2.17;;
30515;SDS011;17297;54.022;10.760;2024-01-11T14:08:11;3.78;;;2.17;;
30515;SDS011;17297;54.022;10.760;2024-01-11T14:10:36;2.47;;;2.00;;
30515;SDS011;17297;54.022;10.760;2024-01-11T14:13:02;2.75;;;2.00;;
30515;SDS011;17297;54.022;10.760;2024-01-11T14:15:28;5.13;;;1.98;;
30515;SDS011;17297;54.022;10.760;2024-01-11T14:17:56;3.00;;;2.10;;
30515;SDS011;17297;54.022;10.760;2024-01-11T14:20:21;3.17;;;2.00;;
30515;SDS011;17297;54.022;10.760;2024-01-11T14:22:47;2.38;;;1.98;;
30515;SDS011;17297;54.022;10.760;2024-01-11T14:25:17;4.70;;;1.73;;
30515;SDS011;17297;54.022;10.760;2024-01-11T14:27:43;3.33;;;2.00;;